createdAt,value
2017-11-16T00:00:42.620Z,97.48
2017-11-16T00:03:17.587Z,97.57
2017-11-16T00:05:52.076Z,97.67
2017-11-16T00:08:26.849Z,97.63
2017-11-16T00:11:01.849Z,97.47
2017-11-16T00:13:36.690Z,97.32
2017-11-16T00:16:11.514Z,97.30
2017-11-16T00:18:46.561Z,97.27
2017-11-16T00:21:21.601Z,97.30
2017-11-16T00:23:56.735Z,97.33
2017-11-16T00:26:32.058Z,97.34
2017-11-16T00:29:07.153Z,97.33
2017-11-16T00:31:42.088Z,97.30
2017-11-16T00:34:17.055Z,97.27
2017-11-16T00:36:51.823Z,97.26
2017-11-16T00:39:26.741Z,97.27
2017-11-16T00:42:01.569Z,97.22
2017-11-16T00:44:36.521Z,97.10
2017-11-16T00:47:11.454Z,97.01
2017-11-16T00:49:46.268Z,97.02
2017-11-16T00:52:21.305Z,97.07
2017-11-16T00:54:56.425Z,97.11
2017-11-16T00:57:31.384Z,97.15
2017-11-16T01:00:06.308Z,97.28
2017-11-16T01:02:41.480Z,97.32
2017-11-16T01:05:16.140Z,97.36
2017-11-16T01:07:50.593Z,97.42
2017-11-16T01:10:25.641Z,97.43
2017-11-16T01:13:00.672Z,97.41
2017-11-16T01:15:35.900Z,97.36
2017-11-16T01:18:10.833Z,97.29
2017-11-16T01:20:45.709Z,97.24
2017-11-16T01:23:20.704Z,97.19
2017-11-16T01:25:55.765Z,97.19
2017-11-16T01:28:30.884Z,97.16
2017-11-16T01:31:05.947Z,97.01
2017-11-16T01:33:40.997Z,96.85
2017-11-16T01:36:15.876Z,96.79
2017-11-16T01:38:50.757Z,96.73
2017-11-16T01:41:25.632Z,96.82
2017-11-16T01:44:00.859Z,96.81
2017-11-16T01:46:35.309Z,96.66
2017-11-16T01:49:10.541Z,96.60
2017-11-16T01:51:45.568Z,96.43
2017-11-16T01:54:20.408Z,96.29
2017-11-16T01:56:55.470Z,96.25
2017-11-16T01:59:30.276Z,96.05
2017-11-16T02:15:35.515Z,95.24
2017-11-16T02:18:10.860Z,95.24
2017-11-16T02:20:45.371Z,95.24
2017-11-16T02:23:20.022Z,95.35
2017-11-16T02:25:54.975Z,95.25
2017-11-16T02:28:29.656Z,95.26
2017-11-16T02:31:04.245Z,95.19
2017-11-16T02:33:38.973Z,95.04
2017-11-16T02:36:13.861Z,94.99
2017-11-16T02:38:48.640Z,94.95
2017-11-16T02:41:23.389Z,95.19
2017-11-16T02:43:58.134Z,95.30
2017-11-16T02:46:32.869Z,95.41
2017-11-16T02:49:07.722Z,95.36
2017-11-16T02:51:42.548Z,95.33
2017-11-16T02:54:17.145Z,95.13
2017-11-16T02:56:52.009Z,95.00
2017-11-16T02:59:26.741Z,94.91
2017-11-16T03:02:01.777Z,94.57
2017-11-16T03:04:36.617Z,94.52
2017-11-16T03:07:11.113Z,94.66
2017-11-16T03:09:46.108Z,94.86
2017-11-16T03:12:20.992Z,94.90
2017-11-16T03:14:55.931Z,94.98
2017-11-16T03:17:30.855Z,94.80
2017-11-16T03:20:05.610Z,94.47
2017-11-16T03:22:40.626Z,94.47
2017-11-16T03:25:15.052Z,94.66
2017-11-16T03:27:49.944Z,94.50
2017-11-16T03:30:24.717Z,94.89
2017-11-16T03:32:59.369Z,95.27
2017-11-16T03:35:34.281Z,95.26
2017-11-16T03:38:09.211Z,94.81
2017-11-16T03:40:44.053Z,94.40
2017-11-16T03:43:18.557Z,94.50
2017-11-16T03:45:53.732Z,94.39
2017-11-16T03:48:28.677Z,94.29
2017-11-16T03:51:03.264Z,94.68
2017-11-16T03:53:37.754Z,94.96
2017-11-16T03:56:12.606Z,95.26
2017-11-16T03:58:47.308Z,95.40
2017-11-16T04:01:22.470Z,95.36
2017-11-16T04:03:57.400Z,95.39
2017-11-16T04:06:33.308Z,96.22
2017-11-16T04:09:08.156Z,96.96
2017-11-16T04:11:42.665Z,97.54
2017-11-16T04:14:17.218Z,98.16
2017-11-16T04:16:52.472Z,98.85
2017-11-16T04:19:27.260Z,99.66
2017-11-16T04:22:02.057Z,100.00
2017-11-16T04:24:36.738Z,100.00
2017-11-16T04:27:11.652Z,100.00
2017-11-16T04:29:46.527Z,100.00
2017-11-16T04:32:20.965Z,100.00
2017-11-16T04:34:56.181Z,100.00
2017-11-16T04:37:31.136Z,100.00
2017-11-16T04:40:05.748Z,100.00
2017-11-16T04:42:40.697Z,100.00
2017-11-16T04:45:15.516Z,100.00
2017-11-16T04:47:50.444Z,100.00
2017-11-16T04:50:25.508Z,100.00
2017-11-16T04:53:00.445Z,100.00
2017-11-16T04:55:35.260Z,100.00
2017-11-16T04:58:10.382Z,100.00
2017-11-16T05:00:45.165Z,100.00
2017-11-16T05:03:19.953Z,100.00
2017-11-16T05:05:54.237Z,100.00
2017-11-16T05:08:29.293Z,100.00
2017-11-16T05:11:07.239Z,100.00
2017-11-16T05:13:42.087Z,100.00
2017-11-16T05:16:17.064Z,100.00
2017-11-16T05:18:51.937Z,100.00
2017-11-16T05:21:26.769Z,100.00
2017-11-16T05:24:01.561Z,100.00
2017-11-16T05:26:36.016Z,100.00
2017-11-16T05:29:10.817Z,100.00
2017-11-16T05:31:45.688Z,100.00
2017-11-16T05:34:20.583Z,100.00
2017-11-16T05:36:55.864Z,100.00
2017-11-16T05:39:30.656Z,99.51
2017-11-16T05:42:05.253Z,99.43
2017-11-16T05:44:40.237Z,99.28
2017-11-16T05:47:15.169Z,98.77
2017-11-16T05:49:50.316Z,98.63
2017-11-16T05:52:25.009Z,98.58
2017-11-16T05:54:59.744Z,98.39
2017-11-16T05:57:34.454Z,98.38
2017-11-16T06:00:09.225Z,98.21
2017-11-16T06:02:43.804Z,98.14
2017-11-16T06:05:18.659Z,98.89
2017-11-16T06:07:53.797Z,100.00
2017-11-16T06:10:28.676Z,98.21
2017-11-16T06:13:03.650Z,96.37
2017-11-16T06:15:38.399Z,96.17
2017-11-16T06:18:13.305Z,95.81
2017-11-16T06:20:48.053Z,95.22
2017-11-16T06:23:22.848Z,94.86
2017-11-16T06:25:57.641Z,94.73
2017-11-16T06:28:32.457Z,94.41
2017-11-16T06:31:07.241Z,94.70
2017-11-16T06:33:42.097Z,94.23
2017-11-16T06:36:16.958Z,94.52
2017-11-16T06:38:51.741Z,94.63
2017-11-16T06:41:26.557Z,94.61
2017-11-16T06:44:01.355Z,94.63
2017-11-16T06:46:36.409Z,94.54
2017-11-16T06:49:11.307Z,94.81
2017-11-16T06:51:46.056Z,94.85
2017-11-16T06:54:20.401Z,94.64
2017-11-16T06:56:55.574Z,94.72
2017-11-16T06:59:30.412Z,93.85
2017-11-16T07:02:05.457Z,93.27
2017-11-16T07:04:40.309Z,93.16
2017-11-16T07:07:15.070Z,93.42
2017-11-16T07:09:49.857Z,93.22
2017-11-16T07:12:24.741Z,93.17
2017-11-16T07:14:59.616Z,93.28
2017-11-16T07:17:34.445Z,93.46
2017-11-16T07:20:08.939Z,93.55
2017-11-16T07:22:43.855Z,93.42
2017-11-16T07:25:18.634Z,93.53
2017-11-16T07:27:53.432Z,93.68
2017-11-16T07:30:28.394Z,93.30
2017-11-16T07:33:03.294Z,92.68
2017-11-16T07:35:38.169Z,92.35
2017-11-16T07:38:13.201Z,91.93
2017-11-16T07:40:53.919Z,91.96
2017-11-16T07:43:28.301Z,91.99
2017-11-16T07:46:03.296Z,92.53
2017-11-16T07:48:38.121Z,92.22
2017-11-16T07:51:12.765Z,91.84
2017-11-16T07:53:47.400Z,92.60
2017-11-16T07:56:22.259Z,92.79
2017-11-16T07:58:57.601Z,92.41
2017-11-16T08:01:32.513Z,93.11
2017-11-16T08:04:07.344Z,91.62
2017-11-16T08:06:42.196Z,91.82
2017-11-16T08:09:17.073Z,92.03
2017-11-16T08:11:52.001Z,92.39
2017-11-16T08:14:27.081Z,92.77
2017-11-16T08:17:01.910Z,92.63
2017-11-16T08:19:36.837Z,92.17
2017-11-16T08:22:11.769Z,91.96
2017-11-16T08:24:46.452Z,91.55
2017-11-16T08:27:21.509Z,91.26
2017-11-16T08:29:56.381Z,91.27
2017-11-16T08:32:31.152Z,90.79
2017-11-16T08:35:05.724Z,90.66
2017-11-16T08:37:40.761Z,91.15
2017-11-16T08:40:15.817Z,91.52
2017-11-16T08:42:50.460Z,92.09
2017-11-16T08:45:25.138Z,92.04
2017-11-16T08:47:59.873Z,91.71
2017-11-16T08:50:34.517Z,91.36
2017-11-16T08:53:09.496Z,90.84
2017-11-16T08:55:44.472Z,90.54
2017-11-16T08:58:19.085Z,91.13
2017-11-16T09:00:53.828Z,90.96
2017-11-16T09:03:28.763Z,90.62
2017-11-16T09:06:03.579Z,89.98
2017-11-16T09:08:38.213Z,90.06
2017-11-16T09:11:13.069Z,90.88
2017-11-16T09:13:48.029Z,90.98
2017-11-16T09:16:22.777Z,91.04
2017-11-16T09:18:57.853Z,91.46
2017-11-16T09:21:32.292Z,91.31
2017-11-16T09:24:06.877Z,91.04
2017-11-16T09:26:41.917Z,91.40
2017-11-16T09:29:16.377Z,90.71
2017-11-16T09:31:51.628Z,90.94
2017-11-16T09:34:26.442Z,90.87
2017-11-16T09:37:01.356Z,90.57
2017-11-16T09:39:36.474Z,90.49
2017-11-16T09:42:11.067Z,90.66
2017-11-16T09:44:45.958Z,90.46
2017-11-16T09:47:20.993Z,90.23
2017-11-16T09:49:55.756Z,90.49
2017-11-16T09:52:30.228Z,90.61
2017-11-16T09:55:04.900Z,90.41
2017-11-16T09:57:40.014Z,90.33
2017-11-16T10:00:14.548Z,89.93
2017-11-16T10:02:49.704Z,89.69
2017-11-16T10:05:24.533Z,89.54
2017-11-16T10:07:59.395Z,89.41
2017-11-16T10:10:34.206Z,89.52
2017-11-16T10:13:09.103Z,89.49
2017-11-16T10:15:44.041Z,89.81
2017-11-16T10:18:18.759Z,90.11
2017-11-16T10:20:53.621Z,90.27
2017-11-16T10:23:28.457Z,90.32
2017-11-16T10:26:03.309Z,89.69
2017-11-16T10:28:38.100Z,89.54
2017-11-16T10:31:13.021Z,89.18
2017-11-16T10:33:47.948Z,89.17
2017-11-16T10:36:22.801Z,89.70
2017-11-16T10:38:57.900Z,88.95
2017-11-16T10:41:33.160Z,89.11
2017-11-16T10:44:08.097Z,89.57
2017-11-16T10:46:43.033Z,89.29
2017-11-16T10:49:18.094Z,88.46
2017-11-16T10:51:52.467Z,88.42
2017-11-16T10:54:27.625Z,88.77
2017-11-16T10:57:02.612Z,88.94
2017-11-16T10:59:38.132Z,88.90
2017-11-16T11:02:12.893Z,88.86
2017-11-16T11:04:47.629Z,89.06
2017-11-16T11:07:22.437Z,89.75
2017-11-16T11:09:57.035Z,89.60
2017-11-16T11:12:32.157Z,88.89
2017-11-16T11:15:07.272Z,88.94
2017-11-16T11:17:42.049Z,88.92
2017-11-16T11:20:16.880Z,89.21
2017-11-16T11:22:51.833Z,88.70
2017-11-16T11:25:26.839Z,88.95
2017-11-16T11:28:01.763Z,88.89
2017-11-16T11:30:36.592Z,88.88
2017-11-16T11:33:11.445Z,88.73
2017-11-16T11:35:46.460Z,88.57
2017-11-16T11:38:21.401Z,88.65
2017-11-16T11:40:56.309Z,88.56
2017-11-16T11:43:31.013Z,88.34
2017-11-16T11:46:05.787Z,88.25
2017-11-16T11:48:40.741Z,88.29
2017-11-16T11:51:15.545Z,88.16
2017-11-16T11:53:50.397Z,87.82
2017-11-16T11:56:25.635Z,87.56
2017-11-16T11:59:00.477Z,87.52
2017-11-16T12:01:35.309Z,87.86
2017-11-16T12:04:09.969Z,86.26
2017-11-16T12:06:44.449Z,86.18
2017-11-16T12:09:19.694Z,86.08
2017-11-16T12:11:54.424Z,85.75
2017-11-16T12:14:29.467Z,85.37
2017-11-16T12:17:03.970Z,85.61
2017-11-16T12:19:38.956Z,85.95
2017-11-16T12:22:13.741Z,86.36
2017-11-16T12:24:48.809Z,86.22
2017-11-16T12:27:23.621Z,86.28
2017-11-16T12:29:58.052Z,86.01
2017-11-16T12:32:32.817Z,85.65
2017-11-16T12:35:07.465Z,86.14
2017-11-16T12:37:42.210Z,85.94
2017-11-16T12:40:17.053Z,86.20
2017-11-16T12:42:51.805Z,86.58
2017-11-16T12:45:26.581Z,86.88
2017-11-16T12:48:01.361Z,86.19
2017-11-16T12:50:36.280Z,85.99
2017-11-16T12:53:11.211Z,85.94
2017-11-16T12:55:45.712Z,85.73
2017-11-16T12:58:21.305Z,86.10
2017-11-16T13:00:56.604Z,85.92
2017-11-16T13:03:31.645Z,85.48
2017-11-16T13:06:06.589Z,85.43
2017-11-16T13:08:41.612Z,85.96
2017-11-16T13:11:16.659Z,86.60
2017-11-16T13:13:51.678Z,86.37
2017-11-16T13:16:26.445Z,85.79
2017-11-16T13:19:01.220Z,85.61
2017-11-16T13:21:35.824Z,85.75
2017-11-16T13:24:10.549Z,86.05
2017-11-16T13:26:45.916Z,85.93
2017-11-16T13:29:20.598Z,84.91
2017-11-16T13:31:55.396Z,84.44
2017-11-16T13:34:30.237Z,84.12
2017-11-16T13:37:05.101Z,84.22
2017-11-16T13:39:40.225Z,84.62
2017-11-16T13:42:14.577Z,85.29
2017-11-16T13:44:50.305Z,85.72
2017-11-16T13:47:25.341Z,86.10
2017-11-16T13:50:00.240Z,86.18
2017-11-16T13:52:35.125Z,85.95
2017-11-16T13:55:09.894Z,85.96
2017-11-16T13:57:45.317Z,86.41
2017-11-16T14:00:19.890Z,86.38
2017-11-16T14:02:54.874Z,86.32
2017-11-16T14:05:29.569Z,86.45
2017-11-16T14:08:04.460Z,86.14
2017-11-16T14:10:39.257Z,86.08
2017-11-16T14:13:14.073Z,85.88
2017-11-16T14:15:48.873Z,85.09
2017-11-16T14:18:24.661Z,84.89
2017-11-16T14:21:00.448Z,85.06
2017-11-16T14:23:35.629Z,85.64
2017-11-16T14:26:10.633Z,85.46
2017-11-16T14:28:45.642Z,85.37
2017-11-16T14:31:20.321Z,85.55
2017-11-16T14:33:55.142Z,86.05
2017-11-16T14:36:29.885Z,85.38
2017-11-16T14:39:04.334Z,85.11
2017-11-16T14:41:39.293Z,85.21
2017-11-16T14:44:13.955Z,85.66
2017-11-16T14:46:48.986Z,85.46
2017-11-16T14:49:24.097Z,86.01
2017-11-16T14:51:59.584Z,86.18
2017-11-16T14:54:34.681Z,86.13
2017-11-16T14:57:09.141Z,86.43
2017-11-16T14:59:44.050Z,86.83
2017-11-16T15:02:18.825Z,87.19
2017-11-16T15:04:53.849Z,87.65
2017-11-16T15:07:28.494Z,88.09
2017-11-16T15:10:03.073Z,88.68
2017-11-16T15:12:38.129Z,88.51
2017-11-16T15:15:13.105Z,88.36
2017-11-16T15:17:48.081Z,88.36
2017-11-16T15:20:22.900Z,88.42
2017-11-16T15:22:58.077Z,88.26
2017-11-16T15:25:33.709Z,88.24
2017-11-16T15:28:09.126Z,88.21
2017-11-16T15:30:43.785Z,88.42
2017-11-16T15:33:19.082Z,88.41
2017-11-16T15:35:54.386Z,88.44
2017-11-16T15:38:29.120Z,88.70
2017-11-16T15:41:04.204Z,88.78
2017-11-16T15:43:39.141Z,88.69
2017-11-16T15:46:13.968Z,88.75
2017-11-16T15:48:48.617Z,88.72
2017-11-16T15:51:23.566Z,88.75
2017-11-16T15:53:58.560Z,89.14
2017-11-16T15:56:33.496Z,89.61
2017-11-16T15:59:08.072Z,89.29
2017-11-16T16:01:42.977Z,89.32
2017-11-16T16:04:17.777Z,89.58
2017-11-16T16:06:52.268Z,89.61
2017-11-16T16:09:27.279Z,90.46
2017-11-16T16:12:01.833Z,89.85
2017-11-16T16:14:36.924Z,89.96
2017-11-16T16:17:11.856Z,90.06
2017-11-16T16:19:46.766Z,90.13
2017-11-16T16:22:21.658Z,90.25
2017-11-16T16:24:56.766Z,90.43
2017-11-16T16:27:31.693Z,90.28
2017-11-16T16:30:06.917Z,90.54
2017-11-16T16:32:41.400Z,90.60
2017-11-16T16:35:16.298Z,90.67
2017-11-16T16:37:51.330Z,90.75
2017-11-16T16:40:26.108Z,90.99
2017-11-16T16:43:01.150Z,91.12
2017-11-16T16:45:36.057Z,91.01
2017-11-16T16:48:10.864Z,91.02
2017-11-16T16:50:46.954Z,91.11
2017-11-16T16:53:26.752Z,90.96
2017-11-16T16:56:02.880Z,91.02
2017-11-16T16:58:37.834Z,91.25
2017-11-16T17:01:23.660Z,91.21
2017-11-16T17:03:59.606Z,91.60
2017-11-16T17:06:34.456Z,92.19
2017-11-16T17:09:09.389Z,92.93
2017-11-16T17:11:44.213Z,93.27
2017-11-16T17:14:19.146Z,93.37
2017-11-16T17:16:53.701Z,93.61
2017-11-16T17:19:28.505Z,93.87
2017-11-16T17:22:03.473Z,94.10
2017-11-16T17:24:38.952Z,94.17
2017-11-16T17:27:13.974Z,94.27
2017-11-16T17:29:49.240Z,94.33
2017-11-16T17:32:24.192Z,94.14
2017-11-16T17:34:59.117Z,94.29
2017-11-16T17:37:34.166Z,94.45
2017-11-16T17:40:09.082Z,94.47
2017-11-16T17:42:43.993Z,94.42
2017-11-16T17:45:18.650Z,94.19
2017-11-16T17:47:53.686Z,93.85
2017-11-16T17:50:28.556Z,93.85
2017-11-16T17:53:03.761Z,93.78
2017-11-16T17:55:38.666Z,93.94
2017-11-16T17:58:13.422Z,93.68
2017-11-16T18:00:47.941Z,93.46
2017-11-16T18:03:23.005Z,93.33
2017-11-16T18:05:57.920Z,93.23
2017-11-16T18:08:32.833Z,93.06
2017-11-16T18:11:07.578Z,93.15
2017-11-16T18:13:42.514Z,93.04
2017-11-16T18:16:17.273Z,92.96
2017-11-16T18:18:52.281Z,93.09
2017-11-16T18:21:27.223Z,93.08
2017-11-16T18:24:01.953Z,92.73
2017-11-16T18:26:36.865Z,92.66
2017-11-16T18:29:11.665Z,92.69
2017-11-16T18:31:46.538Z,92.65
2017-11-16T18:34:21.397Z,92.85
2017-11-16T18:36:56.177Z,93.02
2017-11-16T18:39:31.933Z,92.85
2017-11-16T18:42:07.288Z,93.03
2017-11-16T18:44:42.136Z,93.16
2017-11-16T18:47:16.870Z,93.10
2017-11-16T18:49:51.889Z,93.20
2017-11-16T18:52:26.823Z,93.45
2017-11-16T18:55:01.749Z,93.72
2017-11-16T18:57:36.689Z,94.14
2017-11-16T19:00:11.690Z,94.50
2017-11-16T19:02:46.686Z,94.80
2017-11-16T19:05:21.656Z,94.80
2017-11-16T19:07:57.388Z,95.01
2017-11-16T19:10:32.518Z,95.27
2017-11-16T19:13:07.323Z,95.31
2017-11-16T19:15:42.340Z,95.47
2017-11-16T19:18:17.326Z,95.67
2017-11-16T19:20:52.249Z,95.77
2017-11-16T19:23:26.991Z,96.06
2017-11-16T19:26:01.906Z,96.21
2017-11-16T19:28:36.797Z,96.25
2017-11-16T19:31:11.710Z,96.58
2017-11-16T19:33:46.476Z,96.60
2017-11-16T19:36:21.490Z,96.54
2017-11-16T19:38:56.437Z,96.45
2017-11-16T19:41:31.279Z,96.59
2017-11-16T19:44:06.085Z,96.49
2017-11-16T19:46:41.035Z,96.59
2017-11-16T19:49:16.353Z,96.56
2017-11-16T19:51:51.429Z,96.56
2017-11-16T19:54:26.472Z,96.48
2017-11-16T19:57:01.284Z,96.27
2017-11-16T19:59:36.309Z,96.51
2017-11-16T20:02:11.198Z,96.56
2017-11-16T20:04:46.154Z,96.66
2017-11-16T20:07:21.253Z,96.86
2017-11-16T20:09:56.156Z,96.77
2017-11-16T20:12:31.104Z,96.94
2017-11-16T20:15:06.161Z,96.97
2017-11-16T20:17:41.941Z,96.79
2017-11-16T20:20:17.901Z,96.77
2017-11-16T20:22:53.111Z,96.95
2017-11-16T20:25:28.014Z,97.02
2017-11-16T20:28:02.876Z,97.14
2017-11-16T20:30:37.777Z,97.15
2017-11-16T20:33:13.345Z,97.23
2017-11-16T20:35:48.446Z,97.22
2017-11-16T20:52:13.975Z,98.31
2017-11-16T20:54:48.413Z,98.53
2017-11-16T20:57:23.487Z,98.63
2017-11-16T20:59:58.181Z,98.75
2017-11-16T21:02:33.150Z,98.75
2017-11-16T21:05:07.873Z,98.75
2017-11-16T21:07:42.650Z,98.86
2017-11-16T21:10:17.876Z,99.05
2017-11-16T21:12:52.661Z,99.26
2017-11-16T21:15:27.457Z,99.36
2017-11-16T21:18:02.418Z,99.39
2017-11-16T21:20:37.349Z,99.31
2017-11-16T21:23:12.328Z,99.39
2017-11-16T21:25:47.085Z,99.49
2017-11-16T21:28:21.937Z,99.54
2017-11-16T21:30:56.762Z,99.30
2017-11-16T21:33:31.777Z,99.28
2017-11-16T21:36:06.849Z,99.24
2017-11-16T21:38:41.724Z,99.28
2017-11-16T21:41:16.413Z,99.28
2017-11-16T21:43:51.257Z,99.41
2017-11-16T21:46:26.382Z,99.44
2017-11-16T21:49:01.344Z,99.37
2017-11-16T21:51:36.841Z,99.38
2017-11-16T21:54:11.684Z,99.37
2017-11-16T21:56:46.600Z,99.44
2017-11-16T21:59:21.304Z,99.47
2017-11-16T22:01:56.365Z,99.31
2017-11-16T22:04:31.286Z,99.17
2017-11-16T22:07:06.174Z,99.08
2017-11-16T22:09:41.272Z,99.11
2017-11-16T22:12:15.983Z,99.18
2017-11-16T22:14:50.889Z,99.18
2017-11-16T22:17:26.184Z,99.31
2017-11-16T22:20:01.275Z,99.32
2017-11-16T22:22:36.129Z,99.37
2017-11-16T22:25:10.913Z,99.41
2017-11-16T22:27:45.813Z,99.37
2017-11-16T22:30:21.028Z,99.59
2017-11-16T22:32:56.081Z,99.64
2017-11-16T22:35:31.101Z,99.76
2017-11-16T22:38:06.032Z,99.68
2017-11-16T22:40:41.053Z,99.75
2017-11-16T22:43:15.861Z,99.71
2017-11-16T22:45:51.211Z,99.70
2017-11-16T22:48:26.612Z,99.64
2017-11-16T22:51:01.878Z,99.69
2017-11-16T22:53:36.802Z,99.78
2017-11-16T22:56:11.807Z,99.51
2017-11-16T22:58:47.055Z,99.70
2017-11-16T23:01:21.960Z,99.94
2017-11-16T23:03:57.109Z,100.00
2017-11-16T23:06:32.140Z,100.00
2017-11-16T23:09:07.006Z,100.00
2017-11-16T23:11:41.685Z,100.00
2017-11-16T23:14:16.592Z,100.00
2017-11-16T23:16:51.509Z,100.00
2017-11-16T23:19:26.589Z,100.00
2017-11-16T23:22:01.337Z,100.00
2017-11-16T23:24:35.893Z,100.00
2017-11-16T23:27:10.914Z,100.00
2017-11-16T23:29:45.848Z,100.00
2017-11-16T23:32:20.872Z,100.00
2017-11-16T23:34:55.830Z,99.68
2017-11-16T23:37:30.842Z,99.42
2017-11-16T23:40:05.341Z,98.84
2017-11-16T23:42:40.617Z,98.57
2017-11-16T23:45:15.614Z,98.35
2017-11-16T23:47:50.491Z,97.86
2017-11-16T23:50:25.525Z,97.44
2017-11-16T23:53:00.373Z,97.28
2017-11-16T23:55:35.192Z,97.30
2017-11-16T23:58:10.085Z,97.39
